Time,TemperatureF,DewpointF,PressureIn,WindDirection,WindDirectionDegrees,WindSpeedMPH,WindSpeedGustMPH,Humidity,HourlyPrecipIn,Conditions,Clouds,dailyrainin,SoftwareType,DateUTC
2013-03-09 00:00:00,67.0,-99.9,30.01,SE,134,12.0,15.0,-999,-99.99,,,-99.99,,2013-03-09 06:00:00,
2013-03-09 00:32:00,67.0,-99.9,30.01,SE,134,12.0,15.0,-999,-99.99,,,-99.99,,2013-03-09 06:32:00,
2013-03-09 00:42:00,67.0,-99.9,30.01,SE,134,12.0,15.0,-999,-99.99,,,-99.99,,2013-03-09 06:42:00,
2013-03-09 00:52:00,67.0,-99.9,30.01,SE,134,12.0,15.0,-999,-99.99,,,-99.99,,2013-03-09 06:52:00,
2013-03-09 01:00:00,67.0,-99.9,30.00,SE,142,11.0,17.0,-999,-99.99,,,-99.99,,2013-03-09 07:00:00,
2013-03-09 01:32:00,67.0,-99.9,30.00,SE,142,11.0,17.0,-999,-99.99,,,-99.99,,2013-03-09 07:32:00,
2013-03-09 01:42:00,67.0,-99.9,30.00,SE,142,11.0,17.0,-999,-99.99,,,-99.99,,2013-03-09 07:42:00,
2013-03-09 01:52:00,67.0,-99.9,30.00,SE,142,11.0,17.0,-999,-99.99,,,-99.99,,2013-03-09 07:52:00,
2013-03-09 02:00:00,67.0,-99.9,29.96,SE,140,16.0,22.0,-999,-99.99,,,-99.99,,2013-03-09 08:00:00,
2013-03-09 02:32:00,67.0,-99.9,29.96,SE,140,16.0,22.0,-999,-99.99,,,-99.99,,2013-03-09 08:32:00,
2013-03-09 02:42:00,67.0,-99.9,29.96,SE,140,16.0,22.0,-999,-99.99,,,-99.99,,2013-03-09 08:42:00,
2013-03-09 02:52:00,67.0,-99.9,29.96,SE,140,16.0,22.0,-999,-99.99,,,-99.99,,2013-03-09 08:52:00,
2013-03-09 03:00:00,67.0,-99.9,29.91,SE,136,20.0,25.0,-999,-99.99,,,-99.99,,2013-03-09 09:00:00,
2013-03-09 03:32:00,67.0,-99.9,29.91,SE,136,20.0,25.0,-999,-99.99,,,-99.99,,2013-03-09 09:32:00,
2013-03-09 03:42:00,67.0,-99.9,29.91,SE,136,20.0,25.0,-999,-99.99,,,-99.99,,2013-03-09 09:42:00,
2013-03-09 03:52:00,67.0,-99.9,29.91,SE,136,20.0,25.0,-999,-99.99,,,-99.99,,2013-03-09 09:52:00,
2013-03-09 04:00:00,67.0,-99.9,29.91,SSE,147,14.0,18.0,-999,-99.99,,,-99.99,,2013-03-09 10:00:00,
2013-03-09 04:32:00,67.0,-99.9,29.91,SSE,147,14.0,18.0,-999,-99.99,,,-99.99,,2013-03-09 10:32:00,
2013-03-09 04:42:00,67.0,-99.9,29.91,SSE,147,14.0,18.0,-999,-99.99,,,-99.99,,2013-03-09 10:42:00,
2013-03-09 04:52:00,67.0,-99.9,29.91,SSE,147,14.0,18.0,-999,-99.99,,,-99.99,,2013-03-09 10:52:00,
2013-03-09 05:00:00,67.0,-99.9,29.89,SE,146,16.0,20.0,-999,-99.99,,,-99.99,,2013-03-09 11:00:00,
2013-03-09 05:32:00,67.0,-99.9,29.89,SE,146,16.0,20.0,-999,-99.99,,,-99.99,,2013-03-09 11:32:00,
2013-03-09 05:42:00,67.0,-99.9,29.89,SE,146,16.0,20.0,-999,-99.99,,,-99.99,,2013-03-09 11:42:00,
2013-03-09 05:52:00,67.0,-99.9,29.89,SE,146,16.0,20.0,-999,-99.99,,,-99.99,,2013-03-09 11:52:00,
2013-03-09 06:00:00,67.0,-99.9,29.90,SE,142,12.0,17.0,-999,-99.99,,,-99.99,,2013-03-09 12:00:00,
2013-03-09 06:32:00,67.0,-99.9,29.90,SE,142,12.0,17.0,-999,-99.99,,,-99.99,,2013-03-09 12:32:00,
2013-03-09 06:42:00,67.0,-99.9,29.90,SE,142,12.0,17.0,-999,-99.99,,,-99.99,,2013-03-09 12:42:00,
2013-03-09 06:52:00,67.0,-99.9,29.90,SE,142,12.0,17.0,-999,-99.99,,,-99.99,,2013-03-09 12:52:00,
2013-03-09 07:00:00,67.0,-99.9,29.91,SE,139,13.0,17.0,-999,-99.99,,,-99.99,,2013-03-09 13:00:00,
2013-03-09 07:32:00,67.0,-99.9,29.91,SE,139,13.0,17.0,-999,-99.99,,,-99.99,,2013-03-09 13:32:00,
2013-03-09 07:42:00,67.0,-99.9,29.91,SE,139,13.0,17.0,-999,-99.99,,,-99.99,,2013-03-09 13:42:00,
2013-03-09 07:52:00,67.0,-99.9,29.91,SE,139,13.0,17.0,-999,-99.99,,,-99.99,,2013-03-09 13:52:00,
2013-03-09 08:00:00,68.0,-99.9,29.93,SE,144,11.0,16.0,-999,-99.99,,,-99.99,,2013-03-09 14:00:00,
2013-03-09 08:32:00,68.0,-99.9,29.93,SE,144,11.0,16.0,-999,-99.99,,,-99.99,,2013-03-09 14:32:00,
2013-03-09 08:42:00,68.0,-99.9,29.93,SE,144,11.0,16.0,-999,-99.99,,,-99.99,,2013-03-09 14:42:00,
2013-03-09 08:52:00,68.0,-99.9,29.93,SE,144,11.0,16.0,-999,-99.99,,,-99.99,,2013-03-09 14:52:00,
2013-03-09 09:00:00,68.0,-99.9,29.94,SE,145,11.0,15.0,-999,-99.99,,,-99.99,,2013-03-09 15:00:00,
2013-03-09 09:32:00,68.0,-99.9,29.94,SE,145,11.0,15.0,-999,-99.99,,,-99.99,,2013-03-09 15:32:00,
2013-03-09 09:42:00,68.0,-99.9,29.94,SE,145,11.0,15.0,-999,-99.99,,,-99.99,,2013-03-09 15:42:00,
2013-03-09 09:52:00,68.0,-99.9,29.94,SE,145,11.0,15.0,-999,-99.99,,,-99.99,,2013-03-09 15:52:00,
2013-03-09 10:00:00,69.0,-99.9,29.93,SE,146,12.0,18.0,-999,-99.99,,,-99.99,,2013-03-09 16:00:00,
2013-03-09 10:32:00,69.0,-99.9,29.93,SE,146,12.0,18.0,-999,-99.99,,,-99.99,,2013-03-09 16:32:00,
2013-03-09 10:42:00,69.0,-99.9,29.93,SE,146,12.0,18.0,-999,-99.99,,,-99.99,,2013-03-09 16:42:00,
2013-03-09 10:52:00,69.0,-99.9,29.93,SE,146,12.0,18.0,-999,-99.99,,,-99.99,,2013-03-09 16:52:00,
2013-03-09 11:00:00,70.0,-99.9,29.91,SE,141,13.0,18.0,-999,-99.99,,,-99.99,,2013-03-09 17:00:00,
2013-03-09 11:32:00,70.0,-99.9,29.91,SE,141,13.0,18.0,-999,-99.99,,,-99.99,,2013-03-09 17:32:00,
2013-03-09 11:42:00,70.0,-99.9,29.91,SE,141,13.0,18.0,-999,-99.99,,,-99.99,,2013-03-09 17:42:00,
2013-03-09 11:52:00,70.0,-99.9,29.91,SE,141,13.0,18.0,-999,-99.99,,,-99.99,,2013-03-09 17:52:00,
2013-03-09 12:00:00,70.0,-99.9,29.89,SE,140,18.0,24.0,-999,-99.99,,,-99.99,,2013-03-09 18:00:00,
2013-03-09 12:32:00,70.0,-99.9,29.89,SE,140,18.0,24.0,-999,-99.99,,,-99.99,,2013-03-09 18:32:00,
2013-03-09 12:42:00,70.0,-99.9,29.89,SE,140,18.0,24.0,-999,-99.99,,,-99.99,,2013-03-09 18:42:00,
2013-03-09 12:52:00,70.0,-99.9,29.89,SE,140,18.0,24.0,-999,-99.99,,,-99.99,,2013-03-09 18:52:00,
2013-03-09 13:00:00,70.0,-99.9,29.83,SE,140,24.0,30.0,-999,-99.99,,,-99.99,,2013-03-09 19:00:00,
2013-03-09 13:32:00,70.0,-99.9,29.83,SE,140,24.0,30.0,-999,-99.99,,,-99.99,,2013-03-09 19:32:00,
2013-03-09 13:42:00,70.0,-99.9,29.83,SE,140,24.0,30.0,-999,-99.99,,,-99.99,,2013-03-09 19:42:00,
2013-03-09 13:52:00,70.0,-99.9,29.83,SE,140,24.0,30.0,-999,-99.99,,,-99.99,,2013-03-09 19:52:00,
2013-03-09 14:00:00,70.0,-99.9,29.82,SE,139,18.0,25.0,-999,-99.99,,,-99.99,,2013-03-09 20:00:00,
2013-03-09 14:32:00,70.0,-99.9,29.82,SE,139,18.0,25.0,-999,-99.99,,,-99.99,,2013-03-09 20:32:00,
2013-03-09 14:42:00,70.0,-99.9,29.82,SE,139,18.0,25.0,-999,-99.99,,,-99.99,,2013-03-09 20:42:00,
2013-03-09 14:52:00,70.0,-99.9,29.82,SE,139,18.0,25.0,-999,-99.99,,,-99.99,,2013-03-09 20:52:00,
2013-03-09 15:00:00,70.0,-99.9,29.78,SE,136,23.0,28.0,-999,-99.99,,,-99.99,,2013-03-09 21:00:00,
2013-03-09 15:32:00,70.0,-99.9,29.78,SE,136,23.0,28.0,-999,-99.99,,,-99.99,,2013-03-09 21:32:00,
2013-03-09 15:42:00,70.0,-99.9,29.78,SE,136,23.0,28.0,-999,-99.99,,,-99.99,,2013-03-09 21:42:00,
2013-03-09 15:52:00,70.0,-99.9,29.78,SE,136,23.0,28.0,-999,-99.99,,,-99.99,,2013-03-09 21:52:00,
2013-03-09 16:00:00,70.0,-99.9,29.75,SE,134,24.0,35.0,-999,-99.99,,,-99.99,,2013-03-09 22:00:00,
2013-03-09 16:32:00,70.0,-99.9,29.75,SE,134,24.0,35.0,-999,-99.99,,,-99.99,,2013-03-09 22:32:00,
2013-03-09 16:42:00,70.0,-99.9,29.75,SE,134,24.0,35.0,-999,-99.99,,,-99.99,,2013-03-09 22:42:00,
2013-03-09 16:52:00,70.0,-99.9,29.75,SE,134,24.0,35.0,-999,-99.99,,,-99.99,,2013-03-09 22:52:00,
2013-03-09 17:00:00,69.0,-99.9,29.75,SE,136,19.0,24.0,-999,-99.99,,,-99.99,,2013-03-09 23:00:00,
2013-03-09 17:32:00,69.0,-99.9,29.75,SE,136,19.0,24.0,-999,-99.99,,,-99.99,,2013-03-09 23:32:00,
2013-03-09 17:42:00,69.0,-99.9,29.75,SE,136,19.0,24.0,-999,-99.99,,,-99.99,,2013-03-09 23:42:00,
2013-03-09 17:52:00,69.0,-99.9,29.75,SE,136,19.0,24.0,-999,-99.99,,,-99.99,,2013-03-09 23:52:00,
2013-03-09 18:00:00,69.0,-99.9,29.72,SE,133,17.0,21.0,-999,-99.99,,,-99.99,,2013-03-10 00:00:00,
2013-03-09 18:32:00,69.0,-99.9,29.72,SE,133,17.0,21.0,-999,-99.99,,,-99.99,,2013-03-10 00:32:00,
2013-03-09 18:43:00,69.0,-99.9,29.72,SE,133,17.0,21.0,-999,-99.99,,,-99.99,,2013-03-10 00:43:00,
2013-03-09 18:52:00,69.0,-99.9,29.72,SE,133,17.0,21.0,-999,-99.99,,,-99.99,,2013-03-10 00:52:00,
2013-03-09 19:00:00,68.0,-99.9,29.73,SE,136,16.0,21.0,-999,-99.99,,,-99.99,,2013-03-10 01:00:00,
2013-03-09 19:32:00,68.0,-99.9,29.73,SE,136,16.0,21.0,-999,-99.99,,,-99.99,,2013-03-10 01:32:00,
2013-03-09 19:42:00,68.0,-99.9,29.73,SE,136,16.0,21.0,-999,-99.99,,,-99.99,,2013-03-10 01:42:00,
2013-03-09 19:52:00,68.0,-99.9,29.73,SE,136,16.0,21.0,-999,-99.99,,,-99.99,,2013-03-10 01:52:00,
2013-03-09 20:00:00,68.0,-99.9,29.72,SE,137,17.0,24.0,-999,-99.99,,,-99.99,,2013-03-10 02:00:00,
2013-03-09 20:32:00,68.0,-99.9,29.72,SE,137,17.0,24.0,-999,-99.99,,,-99.99,,2013-03-10 02:32:00,
2013-03-09 20:42:00,68.0,-99.9,29.72,SE,137,17.0,24.0,-999,-99.99,,,-99.99,,2013-03-10 02:42:00,
2013-03-09 20:52:00,68.0,-99.9,29.72,SE,137,17.0,24.0,-999,-99.99,,,-99.99,,2013-03-10 02:52:00,
2013-03-09 21:00:00,68.0,-99.9,29.73,SE,138,14.0,21.0,-999,-99.99,,,-99.99,,2013-03-10 03:00:00,
2013-03-09 21:32:00,68.0,-99.9,29.73,SE,138,14.0,21.0,-999,-99.99,,,-99.99,,2013-03-10 03:32:00,
2013-03-09 21:42:00,68.0,-99.9,29.73,SE,138,14.0,21.0,-999,-99.99,,,-99.99,,2013-03-10 03:42:00,
2013-03-09 21:52:00,68.0,-99.9,29.73,SE,138,14.0,21.0,-999,-99.99,,,-99.99,,2013-03-10 03:52:00,
2013-03-09 22:00:00,68.0,-99.9,29.73,SSE,147,17.0,24.0,-999,-99.99,,,-99.99,,2013-03-10 04:00:00,
2013-03-09 22:32:00,68.0,-99.9,29.73,SSE,147,17.0,24.0,-999,-99.99,,,-99.99,,2013-03-10 04:32:00,
2013-03-09 22:42:00,68.0,-99.9,29.73,SSE,147,17.0,24.0,-999,-99.99,,,-99.99,,2013-03-10 04:42:00,
2013-03-09 22:52:00,68.0,-99.9,29.73,SSE,147,17.0,24.0,-999,-99.99,,,-99.99,,2013-03-10 04:52:00,
2013-03-09 23:00:00,68.0,-99.9,29.71,SSE,147,17.0,24.0,-999,-99.99,,,-99.99,,2013-03-10 05:00:00,
2013-03-09 23:32:00,68.0,-99.9,29.71,SSE,147,17.0,24.0,-999,-99.99,,,-99.99,,2013-03-10 05:32:00,
2013-03-09 23:42:00,68.0,-99.9,29.71,SSE,147,17.0,24.0,-999,-99.99,,,-99.99,,2013-03-10 05:42:00,
2013-03-09 23:52:00,68.0,-99.9,29.71,SSE,147,17.0,24.0,-999,-99.99,,,-99.99,,2013-03-10 05:52:00,